sensor_id;sensor_type;location;lat;lon;timestamp;temperature;humidity
67358;HTU21D;54240;51.096;5.878;2023-03-11T00:01:03;0.59;118.99
67358;HTU21D;54240;51.096;5.878;2023-03-11T00:03:29;0.51;118.99
67358;HTU21D;54240;51.096;5.878;2023-03-11T00:05:55;0.52;118.99
67358;HTU21D;54240;51.096;5.878;2023-03-11T00:08:24;0.37;118.99
67358;HTU21D;54240;51.096;5.878;2023-03-11T00:10:56;0.30;118.99
67358;HTU21D;54240;51.096;5.878;2023-03-11T00:13:23;0.29;118.99
67358;HTU21D;54240;51.096;5.878;2023-03-11T00:15:52;0.23;118.99
67358;HTU21D;54240;51.096;5.878;2023-03-11T00:18:21;0.22;118.99
67358;HTU21D;54240;51.096;5.878;2023-03-11T00:20:50;0.37;118.99
67358;HTU21D;54240;51.096;5.878;2023-03-11T00:23:16;0.23;118.99
67358;HTU21D;54240;51.096;5.878;2023-03-11T00:25:44;0.25;118.99
67358;HTU21D;54240;51.096;5.878;2023-03-11T00:28:11;0.12;118.99
67358;HTU21D;54240;51.096;5.878;2023-03-11T00:30:39;0.30;118.99
67358;HTU21D;54240;51.096;5.878;2023-03-11T00:33:06;0.08;118.99
67358;HTU21D;54240;51.096;5.878;2023-03-11T00:35:33;0.18;118.99
67358;HTU21D;54240;51.096;5.878;2023-03-11T00:38:03;0.05;118.99
67358;HTU21D;54240;51.096;5.878;2023-03-11T00:40:31;0.29;118.99
67358;HTU21D;54240;51.096;5.878;2023-03-11T00:43:02;0.15;118.99
67358;HTU21D;54240;51.096;5.878;2023-03-11T00:45:28;0.13;118.99
67358;HTU21D;54240;51.096;5.878;2023-03-11T00:47:55;0.23;118.99
67358;HTU21D;54240;51.096;5.878;2023-03-11T00:50:29;0.12;118.99
67358;HTU21D;54240;51.096;5.878;2023-03-11T00:52:55;0.15;118.99
67358;HTU21D;54240;51.096;5.878;2023-03-11T00:55:25;0.22;118.99
67358;HTU21D;54240;51.096;5.878;2023-03-11T00:58:03;0.14;118.99
67358;HTU21D;54240;51.096;5.878;2023-03-11T01:00:51;0.10;118.99
67358;HTU21D;54240;51.096;5.878;2023-03-11T01:03:17;0.06;118.99
67358;HTU21D;54240;51.096;5.878;2023-03-11T01:05:44;0.10;118.99
67358;HTU21D;54240;51.096;5.878;2023-03-11T01:08:10;-0.00;118.99
67358;HTU21D;54240;51.096;5.878;2023-03-11T01:10:36;0.16;118.99
67358;HTU21D;54240;51.096;5.878;2023-03-11T01:13:03;0.03;118.99
67358;HTU21D;54240;51.096;5.878;2023-03-11T01:15:32;0.17;118.99
67358;HTU21D;54240;51.096;5.878;2023-03-11T01:17:59;0.24;118.99
67358;HTU21D;54240;51.096;5.878;2023-03-11T01:20:25;0.08;118.99
67358;HTU21D;54240;51.096;5.878;2023-03-11T01:22:51;0.19;118.99
67358;HTU21D;54240;51.096;5.878;2023-03-11T01:25:19;0.27;118.99
67358;HTU21D;54240;51.096;5.878;2023-03-11T01:27:45;0.19;118.99
67358;HTU21D;54240;51.096;5.878;2023-03-11T01:30:18;0.09;118.99
67358;HTU21D;54240;51.096;5.878;2023-03-11T01:32:45;0.03;118.99
67358;HTU21D;54240;51.096;5.878;2023-03-11T01:35:15;0.05;118.99
67358;HTU21D;54240;51.096;5.878;2023-03-11T01:37:41;0.07;118.99
67358;HTU21D;54240;51.096;5.878;2023-03-11T01:40:16;-0.08;118.99
67358;HTU21D;54240;51.096;5.878;2023-03-11T01:42:44;0.06;118.99
67358;HTU21D;54240;51.096;5.878;2023-03-11T01:46:04;-0.08;118.99
67358;HTU21D;54240;51.096;5.878;2023-03-11T01:48:31;-0.17;118.99
67358;HTU21D;54240;51.096;5.878;2023-03-11T01:50:57;-0.00;118.99
67358;HTU21D;54240;51.096;5.878;2023-03-11T01:53:24;0.02;118.99
67358;HTU21D;54240;51.096;5.878;2023-03-11T01:55:50;0.08;118.99
67358;HTU21D;54240;51.096;5.878;2023-03-11T01:58:25;0.08;118.99
67358;HTU21D;54240;51.096;5.878;2023-03-11T02:00:52;0.01;118.99
67358;HTU21D;54240;51.096;5.878;2023-03-11T02:03:31;0.13;118.99
67358;HTU21D;54240;51.096;5.878;2023-03-11T02:06:01;0.06;118.99
67358;HTU21D;54240;51.096;5.878;2023-03-11T02:08:28;0.02;118.99
67358;HTU21D;54240;51.096;5.878;2023-03-11T02:11:04;0.07;118.99
67358;HTU21D;54240;51.096;5.878;2023-03-11T02:13:33;0.07;118.99
67358;HTU21D;54240;51.096;5.878;2023-03-11T02:16:01;0.15;118.99
67358;HTU21D;54240;51.096;5.878;2023-03-11T02:18:31;0.09;118.99
67358;HTU21D;54240;51.096;5.878;2023-03-11T02:27:00;0.18;118.99
67358;HTU21D;54240;51.096;5.878;2023-03-11T02:29:29;0.20;118.99
67358;HTU21D;54240;51.096;5.878;2023-03-11T02:32:00;0.22;118.99
67358;HTU21D;54240;51.096;5.878;2023-03-11T02:34:30;0.22;118.99
67358;HTU21D;54240;51.096;5.878;2023-03-11T02:36:58;0.24;118.99
67358;HTU21D;54240;51.096;5.878;2023-03-11T02:39:39;0.16;118.99
67358;HTU21D;54240;51.096;5.878;2023-03-11T02:42:14;0.16;118.99
67358;HTU21D;54240;51.096;5.878;2023-03-11T02:44:44;0.08;118.99
67358;HTU21D;54240;51.096;5.878;2023-03-11T02:47:11;0.05;118.99
67358;HTU21D;54240;51.096;5.878;2023-03-11T02:49:38;0.12;118.99
67358;HTU21D;54240;51.096;5.878;2023-03-11T02:52:04;0.12;118.99
67358;HTU21D;54240;51.096;5.878;2023-03-11T02:54:30;0.10;118.99
67358;HTU21D;54240;51.096;5.878;2023-03-11T02:56:57;0.10;118.99
67358;HTU21D;54240;51.096;5.878;2023-03-11T02:59:25;0.08;118.99
67358;HTU21D;54240;51.096;5.878;2023-03-11T03:01:52;0.04;118.99
67358;HTU21D;54240;51.096;5.878;2023-03-11T03:04:19;0.04;118.99
67358;HTU21D;54240;51.096;5.878;2023-03-11T03:06:45;0.01;118.99
67358;HTU21D;54240;51.096;5.878;2023-03-11T03:09:14;-0.09;118.99
67358;HTU21D;54240;51.096;5.878;2023-03-11T03:11:40;-0.11;118.99
67358;HTU21D;54240;51.096;5.878;2023-03-11T03:14:06;-0.16;118.99
67358;HTU21D;54240;51.096;5.878;2023-03-11T03:16:32;-0.20;118.99
67358;HTU21D;54240;51.096;5.878;2023-03-11T03:18:58;-0.20;118.99
67358;HTU21D;54240;51.096;5.878;2023-03-11T03:21:24;-0.17;118.99
67358;HTU21D;54240;51.096;5.878;2023-03-11T03:23:51;-0.21;118.99
67358;HTU21D;54240;51.096;5.878;2023-03-11T03:26:17;-0.20;118.99
67358;HTU21D;54240;51.096;5.878;2023-03-11T03:28:46;-0.21;118.99
67358;HTU21D;54240;51.096;5.878;2023-03-11T03:31:13;-0.20;118.99
67358;HTU21D;54240;51.096;5.878;2023-03-11T03:33:41;-0.21;118.99
67358;HTU21D;54240;51.096;5.878;2023-03-11T03:36:10;-0.24;118.99
67358;HTU21D;54240;51.096;5.878;2023-03-11T03:38:43;-0.23;118.99
67358;HTU21D;54240;51.096;5.878;2023-03-11T03:41:09;-0.21;118.99
67358;HTU21D;54240;51.096;5.878;2023-03-11T03:43:39;-0.19;118.99
67358;HTU21D;54240;51.096;5.878;2023-03-11T03:46:06;-0.16;118.99
67358;HTU21D;54240;51.096;5.878;2023-03-11T03:48:42;-0.15;118.99
67358;HTU21D;54240;51.096;5.878;2023-03-11T03:51:12;-0.19;118.99
67358;HTU21D;54240;51.096;5.878;2023-03-11T03:53:42;-0.20;118.99
67358;HTU21D;54240;51.096;5.878;2023-03-11T03:56:14;-0.22;118.99
67358;HTU21D;54240;51.096;5.878;2023-03-11T03:58:42;-0.20;118.99
67358;HTU21D;54240;51.096;5.878;2023-03-11T04:01:10;-0.27;118.99
67358;HTU21D;54240;51.096;5.878;2023-03-11T04:03:37;-0.27;118.99
67358;HTU21D;54240;51.096;5.878;2023-03-11T04:06:20;-0.27;118.99
67358;HTU21D;54240;51.096;5.878;2023-03-11T04:08:52;-0.28;118.99
67358;HTU21D;54240;51.096;5.878;2023-03-11T04:11:21;-0.32;118.99
67358;HTU21D;54240;51.096;5.878;2023-03-11T04:13:47;-0.36;118.99
67358;HTU21D;54240;51.096;5.878;2023-03-11T04:16:19;-0.35;118.99
67358;HTU21D;54240;51.096;5.878;2023-03-11T04:18:46;-0.36;118.99
67358;HTU21D;54240;51.096;5.878;2023-03-11T04:21:12;-0.36;118.99
67358;HTU21D;54240;51.096;5.878;2023-03-11T04:23:38;-0.38;118.99
67358;HTU21D;54240;51.096;5.878;2023-03-11T04:26:05;-0.38;118.99
67358;HTU21D;54240;51.096;5.878;2023-03-11T04:28:34;-0.40;118.99
67358;HTU21D;54240;51.096;5.878;2023-03-11T04:31:00;-0.40;118.99
67358;HTU21D;54240;51.096;5.878;2023-03-11T04:33:26;-0.42;118.99
67358;HTU21D;54240;51.096;5.878;2023-03-11T04:35:52;-0.42;118.99
67358;HTU21D;54240;51.096;5.878;2023-03-11T04:38:18;-0.43;118.99
67358;HTU21D;54240;51.096;5.878;2023-03-11T04:40:44;-0.43;118.99
67358;HTU21D;54240;51.096;5.878;2023-03-11T04:43:10;-0.42;118.99
67358;HTU21D;54240;51.096;5.878;2023-03-11T04:45:39;-0.45;118.99
67358;HTU21D;54240;51.096;5.878;2023-03-11T04:48:08;-0.47;118.99
67358;HTU21D;54240;51.096;5.878;2023-03-11T04:50:35;-0.49;118.99
67358;HTU21D;54240;51.096;5.878;2023-03-11T04:53:02;-0.51;118.99
67358;HTU21D;54240;51.096;5.878;2023-03-11T04:55:28;-0.54;118.99
67358;HTU21D;54240;51.096;5.878;2023-03-11T04:57:54;-0.54;118.99
67358;HTU21D;54240;51.096;5.878;2023-03-11T05:00:21;-0.56;118.99
67358;HTU21D;54240;51.096;5.878;2023-03-11T05:02:54;-0.57;118.99
67358;HTU21D;54240;51.096;5.878;2023-03-11T05:05:21;-0.66;118.99
67358;HTU21D;54240;51.096;5.878;2023-03-11T05:07:47;-0.60;118.99
67358;HTU21D;54240;51.096;5.878;2023-03-11T05:10:14;-0.66;118.99
67358;HTU21D;54240;51.096;5.878;2023-03-11T05:12:51;-0.66;118.99
67358;HTU21D;54240;51.096;5.878;2023-03-11T05:15:18;-0.67;118.99
67358;HTU21D;54240;51.096;5.878;2023-03-11T05:17:44;-0.66;118.99
67358;HTU21D;54240;51.096;5.878;2023-03-11T05:20:11;-0.67;118.99
67358;HTU21D;54240;51.096;5.878;2023-03-11T05:22:38;-0.67;118.99
67358;HTU21D;54240;51.096;5.878;2023-03-11T05:25:05;-0.68;118.99
67358;HTU21D;54240;51.096;5.878;2023-03-11T05:27:31;-0.66;118.99
67358;HTU21D;54240;51.096;5.878;2023-03-11T05:29:57;-0.64;118.99
67358;HTU21D;54240;51.096;5.878;2023-03-11T05:32:25;-0.65;118.99
67358;HTU21D;54240;51.096;5.878;2023-03-11T05:34:52;-0.67;118.99
67358;HTU21D;54240;51.096;5.878;2023-03-11T05:37:18;-0.65;118.99
67358;HTU21D;54240;51.096;5.878;2023-03-11T05:39:46;-0.61;118.99
67358;HTU21D;54240;51.096;5.878;2023-03-11T05:42:13;-0.57;118.99
67358;HTU21D;54240;51.096;5.878;2023-03-11T05:44:39;-0.57;118.99
67358;HTU21D;54240;51.096;5.878;2023-03-11T05:47:06;-0.58;118.99
67358;HTU21D;54240;51.096;5.878;2023-03-11T05:49:33;-0.53;118.99
67358;HTU21D;54240;51.096;5.878;2023-03-11T05:51:59;-0.51;118.99
67358;HTU21D;54240;51.096;5.878;2023-03-11T05:54:27;-0.47;118.99
67358;HTU21D;54240;51.096;5.878;2023-03-11T05:56:53;-0.46;118.99
67358;HTU21D;54240;51.096;5.878;2023-03-11T05:59:20;-0.46;118.99
67358;HTU21D;54240;51.096;5.878;2023-03-11T06:01:52;-0.50;118.99
67358;HTU21D;54240;51.096;5.878;2023-03-11T06:04:18;-0.51;118.99
67358;HTU21D;54240;51.096;5.878;2023-03-11T06:06:44;-0.54;118.99
67358;HTU21D;54240;51.096;5.878;2023-03-11T06:09:13;-0.55;118.99
67358;HTU21D;54240;51.096;5.878;2023-03-11T06:11:40;-0.56;118.99
67358;HTU21D;54240;51.096;5.878;2023-03-11T06:14:10;-0.59;118.99
67358;HTU21D;54240;51.096;5.878;2023-03-11T06:16:37;-0.59;118.99
67358;HTU21D;54240;51.096;5.878;2023-03-11T06:19:03;-0.59;118.99
67358;HTU21D;54240;51.096;5.878;2023-03-11T06:21:33;-0.58;118.99
67358;HTU21D;54240;51.096;5.878;2023-03-11T06:23:59;-0.58;118.99
67358;HTU21D;54240;51.096;5.878;2023-03-11T06:26:27;-0.65;118.99
67358;HTU21D;54240;51.096;5.878;2023-03-11T06:28:53;-0.58;118.99
67358;HTU21D;54240;51.096;5.878;2023-03-11T06:31:21;-0.51;118.99
67358;HTU21D;54240;51.096;5.878;2023-03-11T06:33:49;-0.49;118.99
67358;HTU21D;54240;51.096;5.878;2023-03-11T06:36:17;-0.43;118.99
67358;HTU21D;54240;51.096;5.878;2023-03-11T06:38:43;-0.41;118.99
67358;HTU21D;54240;51.096;5.878;2023-03-11T06:41:12;-0.39;118.99
67358;HTU21D;54240;51.096;5.878;2023-03-11T06:43:38;-0.40;118.99
67358;HTU21D;54240;51.096;5.878;2023-03-11T06:46:13;-0.38;118.99
67358;HTU21D;54240;51.096;5.878;2023-03-11T06:48:40;-0.34;118.99
67358;HTU21D;54240;51.096;5.878;2023-03-11T06:51:06;-0.32;118.99
67358;HTU21D;54240;51.096;5.878;2023-03-11T06:53:32;-0.32;118.99
67358;HTU21D;54240;51.096;5.878;2023-03-11T06:56:05;-0.28;118.99
67358;HTU21D;54240;51.096;5.878;2023-03-11T06:58:40;-0.20;118.99
67358;HTU21D;54240;51.096;5.878;2023-03-11T07:01:19;-0.19;118.99
67358;HTU21D;54240;51.096;5.878;2023-03-11T07:03:48;-0.11;118.99
67358;HTU21D;54240;51.096;5.878;2023-03-11T07:06:17;-0.06;118.99
67358;HTU21D;54240;51.096;5.878;2023-03-11T07:08:45;0.04;118.99
67358;HTU21D;54240;51.096;5.878;2023-03-11T07:11:16;0.12;118.99
67358;HTU21D;54240;51.096;5.878;2023-03-11T07:13:43;0.18;118.99
67358;HTU21D;54240;51.096;5.878;2023-03-11T07:16:19;0.31;118.99
67358;HTU21D;54240;51.096;5.878;2023-03-11T07:18:48;0.38;118.99
67358;HTU21D;54240;51.096;5.878;2023-03-11T07:21:17;0.48;118.99
67358;HTU21D;54240;51.096;5.878;2023-03-11T07:23:44;0.62;118.99
67358;HTU21D;54240;51.096;5.878;2023-03-11T07:26:11;0.76;118.99
67358;HTU21D;54240;51.096;5.878;2023-03-11T07:28:38;0.92;118.99
67358;HTU21D;54240;51.096;5.878;2023-03-11T07:31:09;1.17;118.99
67358;HTU21D;54240;51.096;5.878;2023-03-11T07:33:35;1.51;118.99
67358;HTU21D;54240;51.096;5.878;2023-03-11T07:36:15;1.72;118.99
67358;HTU21D;54240;51.096;5.878;2023-03-11T07:38:42;2.07;118.99
67358;HTU21D;54240;51.096;5.878;2023-03-11T07:41:09;2.57;118.99
67358;HTU21D;54240;51.096;5.878;2023-03-11T07:43:39;3.10;118.99
67358;HTU21D;54240;51.096;5.878;2023-03-11T07:46:11;3.40;118.99
67358;HTU21D;54240;51.096;5.878;2023-03-11T07:48:39;3.69;118.99
67358;HTU21D;54240;51.096;5.878;2023-03-11T07:51:12;3.98;118.99
67358;HTU21D;54240;51.096;5.878;2023-03-11T07:53:39;4.15;118.99
67358;HTU21D;54240;51.096;5.878;2023-03-11T07:56:10;4.30;118.99
67358;HTU21D;54240;51.096;5.878;2023-03-11T07:58:36;4.43;118.99
67358;HTU21D;54240;51.096;5.878;2023-03-11T08:01:08;4.29;118.99
67358;HTU21D;54240;51.096;5.878;2023-03-11T08:03:35;4.51;118.99
67358;HTU21D;54240;51.096;5.878;2023-03-11T08:06:20;4.72;105.76
67358;HTU21D;54240;51.096;5.878;2023-03-11T08:08:49;4.64;118.99
67358;HTU21D;54240;51.096;5.878;2023-03-11T08:11:17;4.89;109.30
67358;HTU21D;54240;51.096;5.878;2023-03-11T08:13:44;4.95;63.21
67358;HTU21D;54240;51.096;5.878;2023-03-11T08:16:13;4.88;118.99
67358;HTU21D;54240;51.096;5.878;2023-03-11T08:18:40;5.01;100.94
67358;HTU21D;54240;51.096;5.878;2023-03-11T08:21:08;4.93;118.99
67358;HTU21D;54240;51.096;5.878;2023-03-11T08:23:34;4.96;109.94
67358;HTU21D;54240;51.096;5.878;2023-03-11T08:26:10;5.37;30.55
67358;HTU21D;54240;51.096;5.878;2023-03-11T08:28:36;5.53;16.04
67358;HTU21D;54240;51.096;5.878;2023-03-11T08:31:09;5.51;72.17
67358;HTU21D;54240;51.096;5.878;2023-03-11T08:33:36;6.04;-6.00
67358;HTU21D;54240;51.096;5.878;2023-03-11T08:36:02;6.34;-6.00
67358;HTU21D;54240;51.096;5.878;2023-03-11T08:38:28;6.84;-6.00
67358;HTU21D;54240;51.096;5.878;2023-03-11T08:40:53;7.12;-6.00
67358;HTU21D;54240;51.096;5.878;2023-03-11T08:43:19;7.60;-6.00
67358;HTU21D;54240;51.096;5.878;2023-03-11T08:45:45;7.88;-6.00
67358;HTU21D;54240;51.096;5.878;2023-03-11T08:48:11;8.00;-6.00
67358;HTU21D;54240;51.096;5.878;2023-03-11T08:50:42;8.24;-6.00
67358;HTU21D;54240;51.096;5.878;2023-03-11T08:53:08;8.11;-6.00
67358;HTU21D;54240;51.096;5.878;2023-03-11T08:55:34;8.06;-6.00
67358;HTU21D;54240;51.096;5.878;2023-03-11T08:58:00;7.86;-6.00
67358;HTU21D;54240;51.096;5.878;2023-03-11T09:00:27;7.84;-6.00
67358;HTU21D;54240;51.096;5.878;2023-03-11T09:02:53;8.09;-6.00
67358;HTU21D;54240;51.096;5.878;2023-03-11T09:05:19;8.50;-6.00
67358;HTU21D;54240;51.096;5.878;2023-03-11T09:07:45;8.46;-6.00
67358;HTU21D;54240;51.096;5.878;2023-03-11T09:10:16;8.51;-6.00
67358;HTU21D;54240;51.096;5.878;2023-03-11T09:12:42;8.72;-6.00
67358;HTU21D;54240;51.096;5.878;2023-03-11T09:15:09;8.73;-6.00
67358;HTU21D;54240;51.096;5.878;2023-03-11T09:17:35;8.18;-6.00
67358;HTU21D;54240;51.096;5.878;2023-03-11T09:20:04;7.82;-6.00
67358;HTU21D;54240;51.096;5.878;2023-03-11T09:22:30;7.90;-6.00
67358;HTU21D;54240;51.096;5.878;2023-03-11T09:24:56;8.22;-6.00
67358;HTU21D;54240;51.096;5.878;2023-03-11T09:27:22;8.45;-6.00
67358;HTU21D;54240;51.096;5.878;2023-03-11T09:29:48;8.66;-6.00
67358;HTU21D;54240;51.096;5.878;2023-03-11T09:32:14;9.24;-6.00
67358;HTU21D;54240;51.096;5.878;2023-03-11T09:34:41;9.55;-6.00
67358;HTU21D;54240;51.096;5.878;2023-03-11T09:37:07;9.39;-6.00
67358;HTU21D;54240;51.096;5.878;2023-03-11T09:39:33;9.75;-6.00
67358;HTU21D;54240;51.096;5.878;2023-03-11T09:45:25;9.57;-6.00
67358;HTU21D;54240;51.096;5.878;2023-03-11T09:50:37;10.29;-6.00
67358;HTU21D;54240;51.096;5.878;2023-03-11T09:56:18;9.07;-6.00
67358;HTU21D;54240;51.096;5.878;2023-03-11T10:01:26;8.86;-6.00
67358;HTU21D;54240;51.096;5.878;2023-03-11T10:03:56;8.77;-6.00
67358;HTU21D;54240;51.096;5.878;2023-03-11T10:06:25;8.35;-6.00
67358;HTU21D;54240;51.096;5.878;2023-03-11T10:09:34;8.52;-6.00
67358;HTU21D;54240;51.096;5.878;2023-03-11T10:17:17;10.33;-6.00
67358;HTU21D;54240;51.096;5.878;2023-03-11T10:26:11;11.30;-6.00
67358;HTU21D;54240;51.096;5.878;2023-03-11T10:28:49;10.70;-6.00
67358;HTU21D;54240;51.096;5.878;2023-03-11T10:31:29;9.97;-6.00
67358;HTU21D;54240;51.096;5.878;2023-03-11T10:37:44;9.48;-6.00
67358;HTU21D;54240;51.096;5.878;2023-03-11T10:42:53;9.40;-6.00
67358;HTU21D;54240;51.096;5.878;2023-03-11T10:45:21;9.62;-6.00
67358;HTU21D;54240;51.096;5.878;2023-03-11T10:47:48;9.61;-6.00
67358;HTU21D;54240;51.096;5.878;2023-03-11T10:50:18;8.41;-6.00
67358;HTU21D;54240;51.096;5.878;2023-03-11T10:53:06;8.41;-6.00
67358;HTU21D;54240;51.096;5.878;2023-03-11T10:55:33;8.42;-6.00
67358;HTU21D;54240;51.096;5.878;2023-03-11T10:58:06;8.33;-6.00
67358;HTU21D;54240;51.096;5.878;2023-03-11T11:00:35;8.16;-6.00
67358;HTU21D;54240;51.096;5.878;2023-03-11T11:03:04;7.90;-6.00
67358;HTU21D;54240;51.096;5.878;2023-03-11T11:05:34;7.86;-6.00
67358;HTU21D;54240;51.096;5.878;2023-03-11T11:08:07;7.68;-6.00
67358;HTU21D;54240;51.096;5.878;2023-03-11T11:10:35;7.68;-6.00
67358;HTU21D;54240;51.096;5.878;2023-03-11T11:13:17;8.36;-6.00
67358;HTU21D;54240;51.096;5.878;2023-03-11T11:18:28;9.26;-6.00
67358;HTU21D;54240;51.096;5.878;2023-03-11T11:21:00;9.48;-6.00
67358;HTU21D;54240;51.096;5.878;2023-03-11T11:23:47;10.03;-6.00
67358;HTU21D;54240;51.096;5.878;2023-03-11T11:26:19;9.65;-6.00
67358;HTU21D;54240;51.096;5.878;2023-03-11T11:29:12;9.42;-6.00
67358;HTU21D;54240;51.096;5.878;2023-03-11T11:31:44;9.66;-6.00
67358;HTU21D;54240;51.096;5.878;2023-03-11T11:34:32;10.22;-6.00
67358;HTU21D;54240;51.096;5.878;2023-03-11T11:37:23;11.09;-6.00
67358;HTU21D;54240;51.096;5.878;2023-03-11T11:39:58;11.59;-6.00
67358;HTU21D;54240;51.096;5.878;2023-03-11T11:42:29;11.52;-6.00
67358;HTU21D;54240;51.096;5.878;2023-03-11T11:45:09;11.89;-6.00
67358;HTU21D;54240;51.096;5.878;2023-03-11T11:47:43;11.81;-6.00
67358;HTU21D;54240;51.096;5.878;2023-03-11T11:50:42;11.59;-6.00
67358;HTU21D;54240;51.096;5.878;2023-03-11T11:55:47;12.07;-6.00
67358;HTU21D;54240;51.096;5.878;2023-03-11T11:58:13;12.57;-6.00
67358;HTU21D;54240;51.096;5.878;2023-03-11T12:01:06;12.53;-6.00
67358;HTU21D;54240;51.096;5.878;2023-03-11T12:04:03;12.08;-6.00
67358;HTU21D;54240;51.096;5.878;2023-03-11T12:09:35;11.48;-6.00
67358;HTU21D;54240;51.096;5.878;2023-03-11T12:17:04;10.81;-6.00
67358;HTU21D;54240;51.096;5.878;2023-03-11T12:19:53;10.89;-6.00
67358;HTU21D;54240;51.096;5.878;2023-03-11T12:23:00;11.04;-6.00
67358;HTU21D;54240;51.096;5.878;2023-03-11T12:30:51;9.97;-6.00
67358;HTU21D;54240;51.096;5.878;2023-03-11T12:33:45;10.11;-6.00
67358;HTU21D;54240;51.096;5.878;2023-03-11T12:36:33;10.06;-6.00
67358;HTU21D;54240;51.096;5.878;2023-03-11T12:39:02;10.28;-6.00
67358;HTU21D;54240;51.096;5.878;2023-03-11T12:41:39;10.62;-6.00
67358;HTU21D;54240;51.096;5.878;2023-03-11T12:44:25;10.66;-6.00
67358;HTU21D;54240;51.096;5.878;2023-03-11T12:49:28;10.36;-6.00
67358;HTU21D;54240;51.096;5.878;2023-03-11T12:54:46;10.33;-6.00
67358;HTU21D;54240;51.096;5.878;2023-03-11T13:00:04;10.18;-6.00
67358;HTU21D;54240;51.096;5.878;2023-03-11T13:05:30;10.18;-6.00
67358;HTU21D;54240;51.096;5.878;2023-03-11T13:10:48;10.29;-6.00
67358;HTU21D;54240;51.096;5.878;2023-03-11T13:13:29;10.15;-6.00
67358;HTU21D;54240;51.096;5.878;2023-03-11T13:18:47;10.30;-6.00
67358;HTU21D;54240;51.096;5.878;2023-03-11T13:21:36;10.52;-6.00
67358;HTU21D;54240;51.096;5.878;2023-03-11T13:40:44;10.58;-6.00
67358;HTU21D;54240;51.096;5.878;2023-03-11T13:43:22;10.42;-6.00
67358;HTU21D;54240;51.096;5.878;2023-03-11T13:45:58;10.31;-6.00
67358;HTU21D;54240;51.096;5.878;2023-03-11T13:48:46;10.34;-6.00
67358;HTU21D;54240;51.096;5.878;2023-03-11T13:51:26;10.04;-6.00
67358;HTU21D;54240;51.096;5.878;2023-03-11T13:53:57;9.86;-6.00
67358;HTU21D;54240;51.096;5.878;2023-03-11T13:56:28;9.68;-6.00
67358;HTU21D;54240;51.096;5.878;2023-03-11T13:59:21;9.72;-6.00
67358;HTU21D;54240;51.096;5.878;2023-03-11T14:04:35;9.59;-6.00
67358;HTU21D;54240;51.096;5.878;2023-03-11T14:07:13;9.74;-6.00
67358;HTU21D;54240;51.096;5.878;2023-03-11T14:09:39;9.79;-6.00
67358;HTU21D;54240;51.096;5.878;2023-03-11T14:12:06;9.77;-6.00
67358;HTU21D;54240;51.096;5.878;2023-03-11T14:17:19;9.86;-6.00
67358;HTU21D;54240;51.096;5.878;2023-03-11T14:20:05;9.19;-6.00
67358;HTU21D;54240;51.096;5.878;2023-03-11T14:22:32;9.12;-6.00
67358;HTU21D;54240;51.096;5.878;2023-03-11T14:25:08;9.33;-6.00
67358;HTU21D;54240;51.096;5.878;2023-03-11T14:27:37;9.50;-6.00
67358;HTU21D;54240;51.096;5.878;2023-03-11T14:30:05;9.14;-6.00
67358;HTU21D;54240;51.096;5.878;2023-03-11T14:32:34;9.08;-6.00
67358;HTU21D;54240;51.096;5.878;2023-03-11T14:35:18;9.27;-6.00
67358;HTU21D;54240;51.096;5.878;2023-03-11T14:37:44;9.57;-6.00
67358;HTU21D;54240;51.096;5.878;2023-03-11T14:40:30;9.61;-6.00
67358;HTU21D;54240;51.096;5.878;2023-03-11T14:43:04;9.84;-6.00
67358;HTU21D;54240;51.096;5.878;2023-03-11T14:45:33;9.97;-6.00
67358;HTU21D;54240;51.096;5.878;2023-03-11T14:48:27;10.16;-6.00
67358;HTU21D;54240;51.096;5.878;2023-03-11T14:50:57;10.21;-6.00
67358;HTU21D;54240;51.096;5.878;2023-03-11T14:53:41;10.18;-6.00
67358;HTU21D;54240;51.096;5.878;2023-03-11T14:56:20;9.96;-6.00
67358;HTU21D;54240;51.096;5.878;2023-03-11T14:58:56;9.91;-6.00
67358;HTU21D;54240;51.096;5.878;2023-03-11T15:01:28;9.48;-6.00
67358;HTU21D;54240;51.096;5.878;2023-03-11T15:04:07;9.34;-6.00
67358;HTU21D;54240;51.096;5.878;2023-03-11T15:06:38;9.37;-6.00
67358;HTU21D;54240;51.096;5.878;2023-03-11T15:09:18;9.53;-6.00
67358;HTU21D;54240;51.096;5.878;2023-03-11T15:14:29;10.05;-6.00
67358;HTU21D;54240;51.096;5.878;2023-03-11T15:19:57;10.52;-6.00
67358;HTU21D;54240;51.096;5.878;2023-03-11T15:22:37;10.35;-6.00
67358;HTU21D;54240;51.096;5.878;2023-03-11T15:25:18;10.40;-6.00
67358;HTU21D;54240;51.096;5.878;2023-03-11T15:27:45;10.25;-6.00
67358;HTU21D;54240;51.096;5.878;2023-03-11T15:30:21;10.26;-6.00
67358;HTU21D;54240;51.096;5.878;2023-03-11T15:32:47;10.03;-6.00
67358;HTU21D;54240;51.096;5.878;2023-03-11T15:37:46;9.71;-6.00
67358;HTU21D;54240;51.096;5.878;2023-03-11T15:40:28;9.59;-6.00
67358;HTU21D;54240;51.096;5.878;2023-03-11T15:45:39;9.61;-6.00
67358;HTU21D;54240;51.096;5.878;2023-03-11T15:48:05;9.57;-6.00
67358;HTU21D;54240;51.096;5.878;2023-03-11T15:50:31;9.59;-6.00
67358;HTU21D;54240;51.096;5.878;2023-03-11T15:52:57;9.81;-6.00
67358;HTU21D;54240;51.096;5.878;2023-03-11T15:55:25;10.08;-6.00
67358;HTU21D;54240;51.096;5.878;2023-03-11T15:58:06;10.21;-6.00
67358;HTU21D;54240;51.096;5.878;2023-03-11T16:00:33;9.96;-6.00
67358;HTU21D;54240;51.096;5.878;2023-03-11T16:02:59;9.67;-6.00
67358;HTU21D;54240;51.096;5.878;2023-03-11T16:05:26;9.46;-6.00
67358;HTU21D;54240;51.096;5.878;2023-03-11T16:07:53;9.33;-6.00
67358;HTU21D;54240;51.096;5.878;2023-03-11T16:10:22;9.15;-6.00
67358;HTU21D;54240;51.096;5.878;2023-03-11T16:12:50;8.97;-6.00
67358;HTU21D;54240;51.096;5.878;2023-03-11T16:15:28;8.98;-6.00
67358;HTU21D;54240;51.096;5.878;2023-03-11T16:18:01;9.03;-6.00
67358;HTU21D;54240;51.096;5.878;2023-03-11T16:20:43;9.10;-6.00
67358;HTU21D;54240;51.096;5.878;2023-03-11T16:23:25;9.21;-6.00
67358;HTU21D;54240;51.096;5.878;2023-03-11T16:26:01;8.97;-6.00
67358;HTU21D;54240;51.096;5.878;2023-03-11T16:28:27;9.00;-6.00
67358;HTU21D;54240;51.096;5.878;2023-03-11T16:30:53;8.97;-6.00
67358;HTU21D;54240;51.096;5.878;2023-03-11T16:33:19;9.05;-6.00
67358;HTU21D;54240;51.096;5.878;2023-03-11T16:35:45;9.04;-6.00
67358;HTU21D;54240;51.096;5.878;2023-03-11T16:38:11;9.03;-6.00
67358;HTU21D;54240;51.096;5.878;2023-03-11T16:40:37;9.02;-6.00
67358;HTU21D;54240;51.096;5.878;2023-03-11T16:43:09;9.03;-6.00
67358;HTU21D;54240;51.096;5.878;2023-03-11T16:45:35;8.90;-6.00
67358;HTU21D;54240;51.096;5.878;2023-03-11T16:48:02;8.77;-6.00
67358;HTU21D;54240;51.096;5.878;2023-03-11T16:50:28;8.86;-6.00
67358;HTU21D;54240;51.096;5.878;2023-03-11T16:52:55;8.90;-6.00
67358;HTU21D;54240;51.096;5.878;2023-03-11T16:55:23;8.92;-6.00
67358;HTU21D;54240;51.096;5.878;2023-03-11T16:57:49;9.01;-6.00
67358;HTU21D;54240;51.096;5.878;2023-03-11T17:00:15;8.85;-6.00
67358;HTU21D;54240;51.096;5.878;2023-03-11T17:02:43;8.56;-6.00
67358;HTU21D;54240;51.096;5.878;2023-03-11T17:05:09;8.27;-6.00
67358;HTU21D;54240;51.096;5.878;2023-03-11T17:07:36;8.03;-6.00
67358;HTU21D;54240;51.096;5.878;2023-03-11T17:10:02;7.81;-6.00
67358;HTU21D;54240;51.096;5.878;2023-03-11T17:12:29;7.67;-6.00
67358;HTU21D;54240;51.096;5.878;2023-03-11T17:14:55;7.53;-6.00
67358;HTU21D;54240;51.096;5.878;2023-03-11T17:17:21;7.42;-6.00
67358;HTU21D;54240;51.096;5.878;2023-03-11T17:19:47;7.32;-6.00
67358;HTU21D;54240;51.096;5.878;2023-03-11T17:22:14;7.24;-6.00